Chuluota, Florida
Current Conditions -  °F | °C
As of 10:53 AM on Thursday 27 Nov 2014 (Local Time) from KSFB Reporting Station
Clear Clear  
Wind Chill: 66°   Ceiling: Unl
Heat Index: 66°   Visibility: 10mi
Dew Point: 49°   Wind: 14mph
Humidity: 54%   Direction: 300°WNW
Pressure: 30.26"   Gusts: NA
Location:  28.647°N, 81.0852°W
Report Text: KSFB 271553Z 30012KT 10SM CLR 19/09 A3026 RMK AO2 SLP245 T01890094
Loading
Personal Weather Stations






























Interactive Weather Map New forecast layout! Learn more

10-Day Weather Forecast

Advertisements
Track Severe Weather on mobile